sensor_id;sensor_type;location;lat;lon;timestamp;pressure;altitude;pressure_sealevel;temperature;humidity
28312;BME280;15572;48.810;9.148;2022-11-14T00:01:23;98140.88;;;2.00;100.00
28312;BME280;15572;48.810;9.148;2022-11-14T00:06:20;98149.06;;;1.89;100.00
28312;BME280;15572;48.810;9.148;2022-11-14T00:11:16;98138.69;;;1.76;100.00
28312;BME280;15572;48.810;9.148;2022-11-14T00:16:14;98144.44;;;1.72;100.00
28312;BME280;15572;48.810;9.148;2022-11-14T00:21:11;98138.44;;;1.60;100.00
28312;BME280;15572;48.810;9.148;2022-11-14T00:26:07;98147.84;;;1.54;100.00
28312;BME280;15572;48.810;9.148;2022-11-14T00:31:04;98154.28;;;1.52;100.00
28312;BME280;15572;48.810;9.148;2022-11-14T00:36:02;98143.34;;;1.45;100.00
28312;BME280;15572;48.810;9.148;2022-11-14T00:40:59;98140.13;;;1.42;100.00
28312;BME280;15572;48.810;9.148;2022-11-14T00:45:56;98136.03;;;1.47;100.00
28312;BME280;15572;48.810;9.148;2022-11-14T00:50:52;98131.53;;;1.28;100.00
28312;BME280;15572;48.810;9.148;2022-11-14T00:55:50;98123.97;;;1.14;100.00
28312;BME280;15572;48.810;9.148;2022-11-14T01:00:47;98113.56;;;1.02;100.00
28312;BME280;15572;48.810;9.148;2022-11-14T01:05:46;98125.34;;;1.09;100.00
28312;BME280;15572;48.810;9.148;2022-11-14T01:10:46;98118.19;;;1.19;100.00
28312;BME280;15572;48.810;9.148;2022-11-14T01:15:45;98112.19;;;1.17;100.00
28312;BME280;15572;48.810;9.148;2022-11-14T01:20:44;98116.38;;;1.10;100.00
28312;BME280;15572;48.810;9.148;2022-11-14T01:25:41;98117.34;;;1.09;100.00
28312;BME280;15572;48.810;9.148;2022-11-14T01:30:38;98105.16;;;1.06;100.00
28312;BME280;15572;48.810;9.148;2022-11-14T01:35:37;98091.53;;;1.00;100.00
28312;BME280;15572;48.810;9.148;2022-11-14T01:40:40;98089.84;;;0.99;100.00
28312;BME280;15572;48.810;9.148;2022-11-14T01:45:46;98095.06;;;1.00;100.00
28312;BME280;15572;48.810;9.148;2022-11-14T01:50:49;98084.38;;;1.10;100.00
28312;BME280;15572;48.810;9.148;2022-11-14T01:55:49;98074.97;;;1.25;100.00
28312;BME280;15572;48.810;9.148;2022-11-14T02:00:47;98071.31;;;1.36;100.00
28312;BME280;15572;48.810;9.148;2022-11-14T02:05:46;98067.66;;;1.46;100.00
28312;BME280;15572;48.810;9.148;2022-11-14T02:10:43;98066.09;;;1.63;100.00
28312;BME280;15572;48.810;9.148;2022-11-14T02:15:40;98062.28;;;1.75;100.00
28312;BME280;15572;48.810;9.148;2022-11-14T02:20:38;98050.75;;;1.75;100.00
28312;BME280;15572;48.810;9.148;2022-11-14T02:25:38;98069.09;;;1.87;100.00
28312;BME280;15572;48.810;9.148;2022-11-14T02:30:35;98075.94;;;1.99;100.00
28312;BME280;15572;48.810;9.148;2022-11-14T02:35:31;98068.75;;;2.09;100.00
28312;BME280;15572;48.810;9.148;2022-11-14T02:40:29;98068.69;;;2.19;100.00
28312;BME280;15572;48.810;9.148;2022-11-14T02:45:26;98053.97;;;2.15;100.00
28312;BME280;15572;48.810;9.148;2022-11-14T02:50:22;98061.97;;;2.15;100.00
28312;BME280;15572;48.810;9.148;2022-11-14T02:55:19;98067.31;;;2.15;100.00
28312;BME280;15572;48.810;9.148;2022-11-14T03:00:18;98058.63;;;2.13;100.00
28312;BME280;15572;48.810;9.148;2022-11-14T03:05:14;98065.63;;;2.14;100.00
28312;BME280;15572;48.810;9.148;2022-11-14T03:10:11;98069.00;;;2.16;100.00
28312;BME280;15572;48.810;9.148;2022-11-14T03:15:09;98061.13;;;2.15;100.00
28312;BME280;15572;48.810;9.148;2022-11-14T03:20:08;98043.84;;;2.19;100.00
28312;BME280;15572;48.810;9.148;2022-11-14T03:25:05;98025.28;;;2.17;100.00
28312;BME280;15572;48.810;9.148;2022-11-14T03:30:02;98024.31;;;2.18;100.00
28312;BME280;15572;48.810;9.148;2022-11-14T03:34:59;98025.69;;;2.22;100.00
28312;BME280;15572;48.810;9.148;2022-11-14T03:39:57;98013.31;;;2.21;100.00
28312;BME280;15572;48.810;9.148;2022-11-14T03:44:54;98000.09;;;2.20;100.00
28312;BME280;15572;48.810;9.148;2022-11-14T03:49:50;97983.22;;;2.19;100.00
28312;BME280;15572;48.810;9.148;2022-11-14T03:54:47;97998.44;;;2.19;100.00
28312;BME280;15572;48.810;9.148;2022-11-14T03:59:45;98013.63;;;2.18;100.00
28312;BME280;15572;48.810;9.148;2022-11-14T04:04:42;98026.56;;;2.13;100.00
28312;BME280;15572;48.810;9.148;2022-11-14T04:09:38;98024.31;;;2.08;100.00
28312;BME280;15572;48.810;9.148;2022-11-14T04:14:35;98028.00;;;2.07;100.00
28312;BME280;15572;48.810;9.148;2022-11-14T04:19:33;98015.91;;;2.03;100.00
28312;BME280;15572;48.810;9.148;2022-11-14T04:24:29;98028.72;;;2.00;100.00
28312;BME280;15572;48.810;9.148;2022-11-14T04:29:26;98011.88;;;1.99;100.00
28312;BME280;15572;48.810;9.148;2022-11-14T04:34:22;98007.69;;;1.97;100.00
28312;BME280;15572;48.810;9.148;2022-11-14T04:39:20;97998.13;;;1.94;100.00
28312;BME280;15572;48.810;9.148;2022-11-14T04:44:17;97987.44;;;1.94;100.00
28312;BME280;15572;48.810;9.148;2022-11-14T04:49:13;97972.97;;;1.97;100.00
28312;BME280;15572;48.810;9.148;2022-11-14T04:54:10;97981.50;;;2.00;100.00
28312;BME280;15572;48.810;9.148;2022-11-14T04:59:08;97993.75;;;2.03;100.00
28312;BME280;15572;48.810;9.148;2022-11-14T05:04:04;97978.53;;;2.03;100.00
28312;BME280;15572;48.810;9.148;2022-11-14T05:09:01;97959.03;;;2.03;100.00
28312;BME280;15572;48.810;9.148;2022-11-14T05:13:57;97952.13;;;2.00;100.00
28312;BME280;15572;48.810;9.148;2022-11-14T05:18:55;97963.41;;;1.94;100.00
28312;BME280;15572;48.810;9.148;2022-11-14T05:23:52;97944.84;;;1.93;100.00
28312;BME280;15572;48.810;9.148;2022-11-14T05:28:48;97947.38;;;1.94;100.00
28312;BME280;15572;48.810;9.148;2022-11-14T05:33:45;97952.19;;;1.91;100.00
28312;BME280;15572;48.810;9.148;2022-11-14T05:38:43;97962.63;;;1.84;100.00
28312;BME280;15572;48.810;9.148;2022-11-14T05:43:41;97952.25;;;1.81;100.00
28312;BME280;15572;48.810;9.148;2022-11-14T05:48:38;97939.03;;;1.80;100.00
28312;BME280;15572;48.810;9.148;2022-11-14T05:53:35;97947.31;;;1.77;100.00
28312;BME280;15572;48.810;9.148;2022-11-14T05:58:33;97951.00;;;1.76;100.00
28312;BME280;15572;48.810;9.148;2022-11-14T06:03:31;97953.81;;;1.74;100.00
28312;BME280;15572;48.810;9.148;2022-11-14T06:08:28;97962.53;;;1.76;100.00
28312;BME280;15572;48.810;9.148;2022-11-14T06:13:25;97967.56;;;1.79;100.00
28312;BME280;15572;48.810;9.148;2022-11-14T06:18:23;97969.78;;;1.84;100.00
28312;BME280;15572;48.810;9.148;2022-11-14T06:23:19;97975.38;;;1.90;100.00
28312;BME280;15572;48.810;9.148;2022-11-14T06:28:16;97968.28;;;1.99;100.00
28312;BME280;15572;48.810;9.148;2022-11-14T06:33:12;97962.63;;;2.11;100.00
28312;BME280;15572;48.810;9.148;2022-11-14T06:38:10;97970.97;;;2.26;100.00
28312;BME280;15572;48.810;9.148;2022-11-14T06:43:06;97976.63;;;2.41;100.00
28312;BME280;15572;48.810;9.148;2022-11-14T06:48:03;97976.66;;;2.59;100.00
28312;BME280;15572;48.810;9.148;2022-11-14T06:53:01;97965.97;;;2.76;100.00
28312;BME280;15572;48.810;9.148;2022-11-14T06:57:58;97962.75;;;2.90;100.00
28312;BME280;15572;48.810;9.148;2022-11-14T07:02:55;97956.69;;;3.06;100.00
28312;BME280;15572;48.810;9.148;2022-11-14T07:07:51;97955.69;;;3.25;100.00
28312;BME280;15572;48.810;9.148;2022-11-14T07:12:48;97950.31;;;3.51;100.00
28312;BME280;15572;48.810;9.148;2022-11-14T07:17:46;97951.88;;;3.61;100.00
28312;BME280;15572;48.810;9.148;2022-11-14T07:22:44;97960.13;;;3.68;100.00
28312;BME280;15572;48.810;9.148;2022-11-14T07:27:41;97986.94;;;3.76;100.00
28312;BME280;15572;48.810;9.148;2022-11-14T07:32:37;97966.22;;;3.78;100.00
28312;BME280;15572;48.810;9.148;2022-11-14T07:37:35;97972.56;;;3.77;100.00
28312;BME280;15572;48.810;9.148;2022-11-14T07:42:32;97975.53;;;3.74;100.00
28312;BME280;15572;48.810;9.148;2022-11-14T07:47:28;97980.91;;;3.74;100.00
28312;BME280;15572;48.810;9.148;2022-11-14T07:52:25;97986.66;;;3.79;100.00
28312;BME280;15572;48.810;9.148;2022-11-14T07:57:22;97989.91;;;3.99;100.00
28312;BME280;15572;48.810;9.148;2022-11-14T08:02:19;98005.38;;;4.13;100.00
28312;BME280;15572;48.810;9.148;2022-11-14T08:07:15;98007.25;;;4.20;100.00
28312;BME280;15572;48.810;9.148;2022-11-14T08:12:12;98011.97;;;4.27;100.00
28312;BME280;15572;48.810;9.148;2022-11-14T08:17:10;98010.00;;;4.37;100.00
28312;BME280;15572;48.810;9.148;2022-11-14T08:22:06;98008.34;;;4.44;100.00
28312;BME280;15572;48.810;9.148;2022-11-14T08:27:03;98034.50;;;4.50;100.00
28312;BME280;15572;48.810;9.148;2022-11-14T08:31:59;98031.03;;;4.57;100.00
28312;BME280;15572;48.810;9.148;2022-11-14T08:36:57;98043.78;;;4.63;100.00
28312;BME280;15572;48.810;9.148;2022-11-14T08:41:54;98051.69;;;4.81;100.00
28312;BME280;15572;48.810;9.148;2022-11-14T08:46:50;98041.22;;;5.44;100.00
28312;BME280;15572;48.810;9.148;2022-11-14T08:51:47;98038.47;;;6.17;100.00
28312;BME280;15572;48.810;9.148;2022-11-14T08:56:44;98046.03;;;6.61;100.00
28312;BME280;15572;48.810;9.148;2022-11-14T09:01:41;98034.34;;;6.76;100.00
28312;BME280;15572;48.810;9.148;2022-11-14T09:06:38;98030.56;;;6.94;100.00
28312;BME280;15572;48.810;9.148;2022-11-14T09:11:34;98035.94;;;7.16;100.00
28312;BME280;15572;48.810;9.148;2022-11-14T09:16:32;98039.06;;;7.28;100.00
28312;BME280;15572;48.810;9.148;2022-11-14T09:21:29;98019.56;;;7.26;100.00
28312;BME280;15572;48.810;9.148;2022-11-14T09:26:25;98026.44;;;7.29;100.00
28312;BME280;15572;48.810;9.148;2022-11-14T09:31:22;98019.88;;;7.31;100.00
28312;BME280;15572;48.810;9.148;2022-11-14T09:36:20;98023.19;;;7.33;100.00
28312;BME280;15572;48.810;9.148;2022-11-14T09:41:25;98019.78;;;7.39;100.00
28312;BME280;15572;48.810;9.148;2022-11-14T09:46:24;98017.84;;;7.48;100.00
28312;BME280;15572;48.810;9.148;2022-11-14T09:51:24;98007.19;;;7.54;100.00
28312;BME280;15572;48.810;9.148;2022-11-14T09:56:24;98003.72;;;7.69;100.00
28312;BME280;15572;48.810;9.148;2022-11-14T10:01:29;98007.06;;;7.85;100.00
28312;BME280;15572;48.810;9.148;2022-11-14T10:06:31;98001.06;;;7.98;100.00
28312;BME280;15572;48.810;9.148;2022-11-14T10:11:32;97997.63;;;8.19;100.00
28312;BME280;15572;48.810;9.148;2022-11-14T10:16:36;98000.06;;;8.43;100.00
28312;BME280;15572;48.810;9.148;2022-11-14T10:21:43;97992.00;;;8.79;100.00
28312;BME280;15572;48.810;9.148;2022-11-14T10:26:47;97981.63;;;9.18;100.00
28312;BME280;15572;48.810;9.148;2022-11-14T10:31:55;97979.97;;;9.39;100.00
28312;BME280;15572;48.810;9.148;2022-11-14T10:37:03;97991.25;;;9.49;100.00
28312;BME280;15572;48.810;9.148;2022-11-14T10:42:08;97986.88;;;9.48;100.00
28312;BME280;15572;48.810;9.148;2022-11-14T10:47:11;97988.94;;;9.46;100.00
28312;BME280;15572;48.810;9.148;2022-11-14T10:52:14;97988.56;;;9.49;100.00
28312;BME280;15572;48.810;9.148;2022-11-14T10:57:14;97991.81;;;9.65;100.00
28312;BME280;15572;48.810;9.148;2022-11-14T11:02:11;97983.03;;;9.85;100.00
28312;BME280;15572;48.810;9.148;2022-11-14T11:07:23;97982.91;;;9.99;100.00
28312;BME280;15572;48.810;9.148;2022-11-14T11:12:50;97977.47;;;10.21;100.00
28312;BME280;15572;48.810;9.148;2022-11-14T11:17:53;97967.72;;;10.26;100.00
28312;BME280;15572;48.810;9.148;2022-11-14T11:23:00;97958.19;;;10.37;100.00
28312;BME280;15572;48.810;9.148;2022-11-14T11:28:06;97956.78;;;10.47;100.00
28312;BME280;15572;48.810;9.148;2022-11-14T11:33:14;97962.88;;;10.56;100.00
28312;BME280;15572;48.810;9.148;2022-11-14T11:38:13;97958.06;;;10.58;100.00
28312;BME280;15572;48.810;9.148;2022-11-14T11:43:15;97956.00;;;10.60;100.00
28312;BME280;15572;48.810;9.148;2022-11-14T11:48:15;97955.38;;;10.58;100.00
28312;BME280;15572;48.810;9.148;2022-11-14T11:53:18;97947.66;;;10.55;100.00
28312;BME280;15572;48.810;9.148;2022-11-14T11:58:21;97955.78;;;10.55;100.00
28312;BME280;15572;48.810;9.148;2022-11-14T12:03:19;97952.84;;;10.50;100.00
28312;BME280;15572;48.810;9.148;2022-11-14T12:08:22;97948.44;;;10.36;100.00
28312;BME280;15572;48.810;9.148;2022-11-14T12:13:45;97942.56;;;10.32;100.00
28312;BME280;15572;48.810;9.148;2022-11-14T12:19:00;97944.66;;;10.37;100.00
28312;BME280;15572;48.810;9.148;2022-11-14T12:29:47;97946.84;;;10.54;100.00
28312;BME280;15572;48.810;9.148;2022-11-14T12:34:46;97943.78;;;10.71;100.00
28312;BME280;15572;48.810;9.148;2022-11-14T12:39:54;97944.53;;;11.32;100.00
28312;BME280;15572;48.810;9.148;2022-11-14T12:44:52;97941.59;;;11.60;100.00
28312;BME280;15572;48.810;9.148;2022-11-14T13:01:04;97937.88;;;11.94;100.00
28312;BME280;15572;48.810;9.148;2022-11-14T13:06:06;97930.94;;;12.17;100.00
28312;BME280;15572;48.810;9.148;2022-11-14T13:11:34;97937.91;;;12.45;100.00
28312;BME280;15572;48.810;9.148;2022-11-14T13:16:51;97922.13;;;12.80;100.00
28312;BME280;15572;48.810;9.148;2022-11-14T13:22:38;97929.53;;;12.59;100.00
28312;BME280;15572;48.810;9.148;2022-11-14T13:27:35;97921.91;;;12.30;100.00
28312;BME280;15572;48.810;9.148;2022-11-14T13:32:53;97916.91;;;12.27;100.00
28312;BME280;15572;48.810;9.148;2022-11-14T13:38:04;97914.19;;;12.27;100.00
28312;BME280;15572;48.810;9.148;2022-11-14T13:43:14;97920.59;;;12.46;100.00
28312;BME280;15572;48.810;9.148;2022-11-14T13:48:39;97913.88;;;12.55;100.00
28312;BME280;15572;48.810;9.148;2022-11-14T13:53:42;97922.44;;;12.58;100.00
28312;BME280;15572;48.810;9.148;2022-11-14T13:59:06;97909.41;;;12.67;100.00
28312;BME280;15572;48.810;9.148;2022-11-14T14:04:29;97903.84;;;12.93;100.00
28312;BME280;15572;48.810;9.148;2022-11-14T14:09:36;97906.53;;;13.00;100.00
28312;BME280;15572;48.810;9.148;2022-11-14T14:14:52;97901.38;;;12.92;100.00
28312;BME280;15572;48.810;9.148;2022-11-14T14:20:00;97909.22;;;12.69;100.00
28312;BME280;15572;48.810;9.148;2022-11-14T14:25:08;97910.16;;;12.49;100.00
28312;BME280;15572;48.810;9.148;2022-11-14T14:30:12;97915.81;;;12.41;100.00
28312;BME280;15572;48.810;9.148;2022-11-14T14:35:20;97913.31;;;12.40;100.00
28312;BME280;15572;48.810;9.148;2022-11-14T14:40:25;97900.44;;;12.29;100.00
28312;BME280;15572;48.810;9.148;2022-11-14T14:45:23;97910.94;;;11.99;100.00
28312;BME280;15572;48.810;9.148;2022-11-14T14:50:23;97903.25;;;11.76;100.00
28312;BME280;15572;48.810;9.148;2022-11-14T14:55:23;97903.44;;;11.61;100.00
28312;BME280;15572;48.810;9.148;2022-11-14T15:00:23;97910.75;;;11.54;100.00
28312;BME280;15572;48.810;9.148;2022-11-14T15:05:22;97923.69;;;11.52;100.00
28312;BME280;15572;48.810;9.148;2022-11-14T15:10:21;97935.97;;;11.55;100.00
28312;BME280;15572;48.810;9.148;2022-11-14T15:15:20;97916.38;;;11.59;100.00
28312;BME280;15572;48.810;9.148;2022-11-14T15:20:23;97930.16;;;11.58;100.00
28312;BME280;15572;48.810;9.148;2022-11-14T15:25:20;97925.38;;;11.53;100.00
28312;BME280;15572;48.810;9.148;2022-11-14T15:30:22;97931.63;;;11.47;100.00
28312;BME280;15572;48.810;9.148;2022-11-14T15:35:27;97934.13;;;11.42;100.00
28312;BME280;15572;48.810;9.148;2022-11-14T15:40:24;97933.47;;;11.33;100.00
28312;BME280;15572;48.810;9.148;2022-11-14T15:45:21;97930.75;;;11.20;100.00
28312;BME280;15572;48.810;9.148;2022-11-14T15:50:26;97941.56;;;11.07;100.00
28312;BME280;15572;48.810;9.148;2022-11-14T15:55:24;97941.56;;;10.94;100.00
28312;BME280;15572;48.810;9.148;2022-11-14T16:00:21;97940.66;;;10.80;100.00
28312;BME280;15572;48.810;9.148;2022-11-14T16:05:21;97928.13;;;10.66;100.00
28312;BME280;15572;48.810;9.148;2022-11-14T16:10:22;97946.84;;;10.54;100.00
28312;BME280;15572;48.810;9.148;2022-11-14T16:15:20;97940.53;;;10.41;100.00
28312;BME280;15572;48.810;9.148;2022-11-14T16:20:18;97950.06;;;10.30;100.00
28312;BME280;15572;48.810;9.148;2022-11-14T16:25:17;97940.22;;;10.23;100.00
28312;BME280;15572;48.810;9.148;2022-11-14T16:30:17;97957.41;;;10.15;100.00
28312;BME280;15572;48.810;9.148;2022-11-14T16:35:15;97952.38;;;10.05;100.00
28312;BME280;15572;48.810;9.148;2022-11-14T16:40:14;97963.59;;;10.02;100.00
28312;BME280;15572;48.810;9.148;2022-11-14T16:45:11;97967.09;;;9.96;100.00
28312;BME280;15572;48.810;9.148;2022-11-14T16:50:09;97968.06;;;9.82;100.00
28312;BME280;15572;48.810;9.148;2022-11-14T16:55:07;97981.09;;;9.79;100.00
28312;BME280;15572;48.810;9.148;2022-11-14T17:00:04;97990.69;;;9.81;100.00
28312;BME280;15572;48.810;9.148;2022-11-14T17:05:01;97994.44;;;9.80;100.00
28312;BME280;15572;48.810;9.148;2022-11-14T17:09:59;97997.28;;;9.72;100.00
28312;BME280;15572;48.810;9.148;2022-11-14T17:14:56;97997.00;;;9.67;100.00
28312;BME280;15572;48.810;9.148;2022-11-14T17:19:53;98000.72;;;9.59;100.00
28312;BME280;15572;48.810;9.148;2022-11-14T17:24:49;97993.97;;;9.49;100.00
28312;BME280;15572;48.810;9.148;2022-11-14T17:29:47;97991.84;;;9.44;100.00
28312;BME280;15572;48.810;9.148;2022-11-14T17:34:45;97995.41;;;9.45;100.00
28312;BME280;15572;48.810;9.148;2022-11-14T17:39:42;97991.38;;;9.41;100.00
28312;BME280;15572;48.810;9.148;2022-11-14T17:44:38;97994.88;;;9.35;100.00
28312;BME280;15572;48.810;9.148;2022-11-14T17:49:36;97997.31;;;9.29;100.00
28312;BME280;15572;48.810;9.148;2022-11-14T17:54:33;97991.91;;;9.29;100.00
28312;BME280;15572;48.810;9.148;2022-11-14T17:59:31;97989.59;;;9.26;100.00
28312;BME280;15572;48.810;9.148;2022-11-14T18:04:29;97993.72;;;9.22;100.00
28312;BME280;15572;48.810;9.148;2022-11-14T18:09:27;97987.06;;;9.25;100.00
28312;BME280;15572;48.810;9.148;2022-11-14T18:14:24;97980.66;;;9.26;100.00
28312;BME280;15572;48.810;9.148;2022-11-14T18:19:21;97980.84;;;9.24;100.00
28312;BME280;15572;48.810;9.148;2022-11-14T18:24:17;97980.03;;;9.24;100.00
28312;BME280;15572;48.810;9.148;2022-11-14T18:29:15;97989.66;;;9.33;100.00
28312;BME280;15572;48.810;9.148;2022-11-14T18:34:12;97970.94;;;9.32;100.00
28312;BME280;15572;48.810;9.148;2022-11-14T18:39:09;97962.00;;;9.31;100.00
28312;BME280;15572;48.810;9.148;2022-11-14T18:44:05;97958.88;;;9.27;100.00
28312;BME280;15572;48.810;9.148;2022-11-14T18:49:03;97951.97;;;9.25;100.00
28312;BME280;15572;48.810;9.148;2022-11-14T18:54:00;97953.56;;;9.19;100.00
28312;BME280;15572;48.810;9.148;2022-11-14T18:58:56;97958.09;;;9.12;100.00
28312;BME280;15572;48.810;9.148;2022-11-14T19:03:55;97955.31;;;9.06;100.00
28312;BME280;15572;48.810;9.148;2022-11-14T19:08:56;97964.00;;;9.01;100.00
28312;BME280;15572;48.810;9.148;2022-11-14T19:13:52;97967.47;;;8.95;100.00
28312;BME280;15572;48.810;9.148;2022-11-14T19:18:49;97965.13;;;8.92;100.00
28312;BME280;15572;48.810;9.148;2022-11-14T19:23:45;97966.78;;;8.86;100.00
28312;BME280;15572;48.810;9.148;2022-11-14T19:28:43;97977.28;;;8.81;100.00
28312;BME280;15572;48.810;9.148;2022-11-14T19:33:40;97976.81;;;8.78;100.00
28312;BME280;15572;48.810;9.148;2022-11-14T19:38:37;97979.25;;;8.73;100.00
28312;BME280;15572;48.810;9.148;2022-11-14T19:43:36;97985.22;;;8.68;100.00
28312;BME280;15572;48.810;9.148;2022-11-14T19:48:34;97988.50;;;8.64;100.00
28312;BME280;15572;48.810;9.148;2022-11-14T19:53:32;97993.72;;;8.65;100.00
28312;BME280;15572;48.810;9.148;2022-11-14T19:58:29;97991.78;;;8.59;100.00
28312;BME280;15572;48.810;9.148;2022-11-14T20:03:26;97997.91;;;8.53;100.00
28312;BME280;15572;48.810;9.148;2022-11-14T20:08:24;97998.50;;;8.49;100.00
28312;BME280;15572;48.810;9.148;2022-11-14T20:13:20;97997.25;;;8.51;100.00
28312;BME280;15572;48.810;9.148;2022-11-14T20:18:17;97994.09;;;8.48;100.00
28312;BME280;15572;48.810;9.148;2022-11-14T20:23:16;97992.69;;;8.52;100.00
28312;BME280;15572;48.810;9.148;2022-11-14T20:28:14;97990.84;;;8.52;100.00
28312;BME280;15572;48.810;9.148;2022-11-14T20:33:11;98000.44;;;8.55;100.00
28312;BME280;15572;48.810;9.148;2022-11-14T20:38:08;97999.88;;;8.59;100.00
28312;BME280;15572;48.810;9.148;2022-11-14T20:43:28;98000.88;;;8.58;100.00
28312;BME280;15572;48.810;9.148;2022-11-14T20:48:28;98003.84;;;8.63;100.00
28312;BME280;15572;48.810;9.148;2022-11-14T20:53:25;98003.72;;;8.71;100.00
28312;BME280;15572;48.810;9.148;2022-11-14T20:58:22;97998.94;;;8.88;100.00
28312;BME280;15572;48.810;9.148;2022-11-14T21:03:19;97992.69;;;9.02;100.00
28312;BME280;15572;48.810;9.148;2022-11-14T21:08:17;97993.97;;;9.06;100.00
28312;BME280;15572;48.810;9.148;2022-11-14T21:13:16;97995.00;;;9.05;100.00
28312;BME280;15572;48.810;9.148;2022-11-14T21:18:32;97985.88;;;9.06;100.00
28312;BME280;15572;48.810;9.148;2022-11-14T21:23:31;97991.38;;;8.98;100.00
28312;BME280;15572;48.810;9.148;2022-11-14T21:28:28;97985.09;;;8.91;100.00
28312;BME280;15572;48.810;9.148;2022-11-14T21:33:26;97991.59;;;8.82;100.00
28312;BME280;15572;48.810;9.148;2022-11-14T21:38:23;97989.22;;;8.72;100.00
28312;BME280;15572;48.810;9.148;2022-11-14T21:43:21;97988.50;;;8.64;100.00
28312;BME280;15572;48.810;9.148;2022-11-14T21:48:18;97988.16;;;8.52;100.00
28312;BME280;15572;48.810;9.148;2022-11-14T21:53:15;97983.88;;;8.43;100.00
28312;BME280;15572;48.810;9.148;2022-11-14T21:58:11;97992.63;;;8.30;100.00
28312;BME280;15572;48.810;9.148;2022-11-14T22:03:17;97981.00;;;8.15;100.00
28312;BME280;15572;48.810;9.148;2022-11-14T22:08:33;97986.00;;;8.03;100.00
28312;BME280;15572;48.810;9.148;2022-11-14T22:13:32;97982.34;;;7.96;100.00
28312;BME280;15572;48.810;9.148;2022-11-14T22:18:30;97986.28;;;7.94;100.00
28312;BME280;15572;48.810;9.148;2022-11-14T22:23:27;97982.19;;;7.98;100.00
28312;BME280;15572;48.810;9.148;2022-11-14T22:28:24;97983.13;;;8.05;100.00
28312;BME280;15572;48.810;9.148;2022-11-14T22:33:21;97983.69;;;8.15;100.00
28312;BME280;15572;48.810;9.148;2022-11-14T22:38:19;97985.75;;;8.28;100.00
28312;BME280;15572;48.810;9.148;2022-11-14T22:43:33;97985.94;;;8.41;100.00
28312;BME280;15572;48.810;9.148;2022-11-14T22:48:32;97990.00;;;8.52;100.00
28312;BME280;15572;48.810;9.148;2022-11-14T22:53:31;97987.66;;;8.63;100.00
28312;BME280;15572;48.810;9.148;2022-11-14T23:04:05;97978.00;;;8.90;100.00
28312;BME280;15572;48.810;9.148;2022-11-14T23:09:06;97979.28;;;8.94;100.00
28312;BME280;15572;48.810;9.148;2022-11-14T23:14:02;97980.56;;;8.98;100.00
28312;BME280;15572;48.810;9.148;2022-11-14T23:19:01;97984.59;;;9.02;100.00
28312;BME280;15572;48.810;9.148;2022-11-14T23:23:59;97972.38;;;9.06;100.00
28312;BME280;15572;48.810;9.148;2022-11-14T23:28:58;97973.72;;;9.17;100.00
28312;BME280;15572;48.810;9.148;2022-11-14T23:33:55;97976.28;;;9.25;100.00
28312;BME280;15572;48.810;9.148;2022-11-14T23:38:52;97959.69;;;9.28;100.00
28312;BME280;15572;48.810;9.148;2022-11-14T23:43:49;97961.16;;;9.30;100.00
28312;BME280;15572;48.810;9.148;2022-11-14T23:48:47;97958.47;;;9.30;100.00
28312;BME280;15572;48.810;9.148;2022-11-14T23:53:43;97944.94;;;9.30;100.00
28312;BME280;15572;48.810;9.148;2022-11-14T23:58:41;97951.59;;;9.28;100.00
